Time;durP1;ratioP1;P1;durP2;ratioP2;P2;SDS_P1;SDS_P2;PMS_P1;PMS_P2;Temp;Humidity;BMP_temperature;BMP_pressure;BME280_temperature;BME280_humidity;BME280_pressure;Samples;Min_cycle;Max_cycle;Signal;HPM_P1;HPM_P2
2021/09/23 00:02:35;;;;;;;33.17;21.70;;;;;;;11.67;73.58;100998.16;5092024;28;20059;-62
2021/09/23 00:05:04;;;;;;;30.05;19.80;;;;;;;11.68;73.36;101007.38;5092290;28;20490;-61
2021/09/23 00:07:31;;;;;;;31.65;20.83;;;;;;;11.56;73.59;101002.28;5092025;28;20059;-61
2021/09/23 00:09:58;;;;;;;36.00;22.42;;;;;;;11.60;73.41;101005.31;5092576;28;20048;-60
2021/09/23 00:12:26;;;;;;;30.63;20.98;;;;;;;11.58;73.54;101000.84;5096815;28;20486;-61
2021/09/23 00:14:53;;;;;;;36.15;24.20;;;;;;;11.58;73.47;101006.44;5096789;28;20052;-61
2021/09/23 00:17:22;;;;;;;35.58;23.55;;;;;;;11.58;73.55;101005.59;5096272;28;20064;-61
2021/09/23 00:19:49;;;;;;;39.33;23.25;;;;;;;11.57;73.40;101009.53;5096570;28;20064;-61
2021/09/23 00:22:17;;;;;;;35.10;21.73;;;;;;;11.52;73.16;101012.41;5096005;28;20059;-61
2021/09/23 00:24:44;;;;;;;36.72;22.98;;;;;;;11.51;72.87;101005.19;5095409;28;20126;-60
2021/09/23 00:27:14;;;;;;;36.58;22.50;;;;;;;11.48;72.98;100994.63;5096421;28;20423;-61
2021/09/23 00:29:42;;;;;;;37.70;23.40;;;;;;;11.40;73.01;100984.19;5087863;28;20055;-60
2021/09/23 00:32:10;;;;;;;36.22;23.13;;;;;;;11.36;73.04;100982.03;5076172;28;20100;-60
2021/09/23 00:34:38;;;;;;;38.28;23.40;;;;;;;11.35;73.16;100977.56;5076392;28;20059;-61
2021/09/23 00:37:06;;;;;;;40.05;24.58;;;;;;;11.30;73.51;100972.09;5076733;28;20101;-61
2021/09/23 00:39:33;;;;;;;44.80;25.88;;;;;;;11.29;73.95;100978.78;5093248;28;20060;-61
2021/09/23 00:42:03;;;;;;;41.22;25.85;;;;;;;11.27;73.65;100966.28;5094253;28;20059;-60
2021/09/23 00:44:31;;;;;;;39.63;24.80;;;;;;;11.25;73.75;100955.44;5096035;28;20509;-61
2021/09/23 00:46:58;;;;;;;41.35;25.38;;;;;;;11.30;73.48;100960.13;5096130;28;20056;-61
2021/09/23 00:49:26;;;;;;;43.17;26.98;;;;;;;11.31;73.31;100950.59;5095487;28;20382;-61
2021/09/23 00:51:55;;;;;;;45.20;27.58;;;;;;;11.28;73.35;100952.06;5095959;28;20059;-60
2021/09/23 00:54:23;;;;;;;48.03;29.15;;;;;;;11.22;73.77;100956.06;5096266;28;20066;-61
2021/09/23 00:56:50;;;;;;;46.92;28.85;;;;;;;11.18;73.75;100960.59;5096027;28;20052;-60
2021/09/23 00:59:17;;;;;;;42.30;25.05;;;;;;;11.23;73.77;100951.31;5096123;28;20048;-61
2021/09/23 01:01:46;;;;;;;35.13;22.73;;;;;;;11.18;73.84;100935.50;5095861;28;20052;-61
2021/09/23 01:04:16;;;;;;;49.42;30.25;;;;;;;11.03;74.17;100917.09;5094062;28;20048;-61
2021/09/23 01:06:44;;;;;;;51.72;28.58;;;;;;;11.10;74.04;100908.34;5095920;28;20052;-61
2021/09/23 01:09:13;;;;;;;53.53;29.95;;;;;;;11.10;73.90;100905.53;5095036;28;20367;-61
2021/09/23 01:11:40;;;;;;;50.37;30.37;;;;;;;11.08;73.87;100907.81;5095637;28;20059;-61
2021/09/23 01:14:08;;;;;;;48.15;28.70;;;;;;;11.11;73.85;100901.63;5095306;28;20052;-61
2021/09/23 01:16:35;;;;;;;51.97;31.38;;;;;;;11.09;73.63;100899.16;5095355;28;20056;-61
2021/09/23 01:19:03;;;;;;;49.20;29.65;;;;;;;11.13;73.70;100902.16;5095490;28;20056;-60
2021/09/23 01:21:32;;;;;;;51.95;30.00;;;;;;;11.10;73.52;100906.38;5095366;28;20406;-61
2021/09/23 01:23:59;;;;;;;50.15;28.92;;;;;;;11.06;73.62;100910.09;5094235;28;20056;-61
2021/09/23 01:26:29;;;;;;;48.97;27.50;;;;;;;11.13;73.67;100896.59;5095605;28;20048;-61
2021/09/23 01:28:57;;;;;;;;;;;;;;;11.06;74.04;100893.34;5095702;28;20079;-61
2021/09/23 01:31:25;;;;;;;45.88;29.30;;;;;;;11.02;73.88;100893.13;5095424;28;20293;-61
2021/09/23 01:33:52;;;;;;;52.92;31.75;;;;;;;11.02;74.08;100909.03;5095179;28;20055;-61
2021/09/23 01:36:19;;;;;;;54.28;31.85;;;;;;;11.02;74.11;100903.47;5095050;28;20059;-60
2021/09/23 01:38:51;;;;;;;53.33;32.47;;;;;;;10.99;73.89;100882.63;5095623;28;20063;-60
2021/09/23 01:41:18;;;;;;;57.58;33.00;;;;;;;11.01;74.26;100885.09;5095015;28;20379;-61
2021/09/23 01:43:46;;;;;;;68.35;38.72;;;;;;;10.92;75.20;100877.44;5095121;28;20785;-61
2021/09/23 01:46:13;;;;;;;59.92;34.97;;;;;;;10.86;75.32;100878.66;5094994;28;20055;-60
2021/09/23 01:48:41;;;;;;;57.78;33.55;;;;;;;10.87;75.20;100887.84;5094867;28;20051;-61
2021/09/23 01:51:08;;;;;;;58.33;37.00;;;;;;;10.87;74.91;100874.72;5094923;28;20048;-60
2021/09/23 01:53:35;;;;;;;67.43;37.08;;;;;;;10.90;74.71;100885.28;5094172;28;20430;-60
2021/09/23 01:56:04;;;;;;;63.65;34.85;;;;;;;10.93;74.77;100876.28;5094305;28;20051;-61
2021/09/23 01:58:31;;;;;;;66.25;37.17;;;;;;;10.93;74.76;100870.72;5094564;28;20402;-60
2021/09/23 02:00:59;;;;;;;57.95;34.75;;;;;;;10.91;74.65;100872.16;5094907;28;20063;-61
2021/09/23 02:03:26;;;;;;;56.78;34.28;;;;;;;10.91;74.68;100861.03;5094336;28;20059;-61
2021/09/23 02:05:53;;;;;;;57.08;34.50;;;;;;;10.89;74.67;100855.75;5094344;28;20056;-61
2021/09/23 02:08:21;;;;;;;62.85;37.15;;;;;;;10.90;74.54;100857.41;5094747;28;20052;-61
2021/09/23 02:10:48;;;;;;;57.35;33.53;;;;;;;10.91;74.22;100861.03;5094222;28;20098;-61
2021/09/23 02:13:19;;;;;;;53.83;32.88;;;;;;;10.86;74.03;100855.56;5095037;28;20052;-61
2021/09/23 02:15:47;;;;;;;56.10;33.45;;;;;;;10.87;73.89;100832.94;5094647;28;20052;-60
2021/09/23 02:18:14;;;;;;;62.90;36.58;;;;;;;10.85;74.11;100829.63;5095103;28;20051;-61
2021/09/23 02:20:41;;;;;;;58.97;35.83;;;;;;;10.78;74.29;100826.44;5094958;28;20052;-61
2021/09/23 02:23:10;;;;;;;68.05;38.30;;;;;;;10.78;74.25;100820.84;5093597;28;20044;-60
2021/09/23 02:25:37;;;;;;;64.03;38.85;;;;;;;10.76;74.59;100818.38;5093392;28;20417;-61
2021/09/23 02:28:05;;;;;;;65.55;37.20;;;;;;;10.76;74.67;100817.56;5094206;28;20382;-61
2021/09/23 02:30:34;;;;;;;53.08;29.38;;;;;;;10.74;74.46;100809.50;5094078;28;20048;-60
2021/09/23 02:33:01;;;;;;;44.30;27.90;;;;;;;10.77;74.25;100819.19;5093352;28;20063;-61
2021/09/23 02:35:33;;;;;;;44.63;27.17;;;;;;;10.77;73.83;100824.75;5093710;28;20470;-60
2021/09/23 02:38:01;;;;;;;43.70;26.15;;;;;;;10.73;73.64;100820.94;5093385;28;20082;-61
2021/09/23 02:40:28;;;;;;;43.55;26.90;;;;;;;10.73;73.78;100823.72;5074425;28;20151;-61
2021/09/23 02:42:55;;;;;;;50.67;30.10;;;;;;;10.67;73.97;100819.41;5076766;28;20071;-62
2021/09/23 02:45:23;;;;;;;60.83;34.40;;;;;;;10.62;74.19;100825.06;5094003;28;20378;-62
2021/09/23 02:47:52;;;;;;;48.53;30.65;;;;;;;10.61;74.27;100832.59;5094356;28;20056;-62
2021/09/23 02:50:19;;;;;;;56.72;34.70;;;;;;;10.62;73.93;100831.44;5093809;28;20406;-61
2021/09/23 02:52:46;;;;;;;52.38;33.55;;;;;;;10.62;73.94;100828.66;5093571;28;20110;-61
2021/09/23 02:55:13;;;;;;;53.83;33.20;;;;;;;10.59;74.03;100828.47;5093326;28;20055;-62
2021/09/23 02:57:41;;;;;;;53.92;32.28;;;;;;;10.61;73.82;100817.84;5093691;28;20055;-61
2021/09/23 03:00:09;;;;;;;48.90;30.67;;;;;;;10.49;74.13;100819.13;5093628;28;20048;-62
2021/09/23 03:02:36;;;;;;;58.83;34.50;;;;;;;10.43;74.98;100816.75;5093295;28;20063;-62
2021/09/23 03:05:06;;;;;;;56.05;32.70;;;;;;;10.44;74.75;100816.44;5093555;28;20481;-61
2021/09/23 03:07:33;;;;;;;55.45;31.90;;;;;;;10.42;75.10;100817.91;5093515;28;20051;-61
2021/09/23 03:10:01;;;;;;;53.22;32.13;;;;;;;10.45;74.88;100806.13;5093722;28;20055;-61
2021/09/23 03:12:28;;;;;;;53.67;33.03;;;;;;;10.47;74.72;100813.03;5093538;28;20051;-62
2021/09/23 03:14:56;;;;;;;62.65;34.58;;;;;;;10.45;75.18;100800.56;5093338;28;20056;-61
2021/09/23 03:17:23;;;;;;;66.60;34.67;;;;;;;10.38;75.89;100802.94;5093112;28;20047;-62
2021/09/23 03:19:52;;;;;;;56.58;32.72;;;;;;;10.39;75.69;100802.59;5093541;28;20056;-62
2021/09/23 03:22:21;;;;;;;58.97;34.28;;;;;;;10.43;75.49;100798.06;5093177;28;20056;-62
2021/09/23 03:24:49;;;;;;;55.40;33.22;;;;;;;10.45;75.52;100787.47;5092988;28;20074;-61
2021/09/23 03:27:16;;;;;;;55.25;33.00;;;;;;;10.47;75.29;100776.03;5093146;28;20052;-62
2021/09/23 03:29:45;;;;;;;55.00;32.88;;;;;;;10.45;75.74;100762.38;5084238;28;20071;-61
2021/09/23 03:32:13;;;;;;;56.70;33.55;;;;;;;10.49;75.74;100748.69;5072958;28;20410;-62
2021/09/23 03:34:40;;;;;;;49.65;31.10;;;;;;;10.54;75.42;100738.28;5073119;28;20052;-61
2021/09/23 03:37:08;;;;;;;53.13;31.17;;;;;;;10.54;75.59;100729.94;5073113;28;20056;-61
2021/09/23 03:39:37;;;;;;;49.13;29.83;;;;;;;10.54;75.72;100726.28;5086291;28;20071;-62
2021/09/23 03:42:04;;;;;;;45.45;30.23;;;;;;;10.55;75.50;100725.19;5092900;28;20044;-62
2021/09/23 03:44:32;;;;;;;47.97;29.27;;;;;;;10.57;75.65;100729.31;5092757;28;20043;-62
2021/09/23 03:46:59;;;;;;;48.38;28.58;;;;;;;10.64;75.88;100734.47;5093123;28;20096;-61
2021/09/23 03:49:27;;;;;;;47.13;28.55;;;;;;;10.65;75.78;100733.34;5092808;28;20052;-60
2021/09/23 03:51:54;;;;;;;48.33;28.02;;;;;;;10.70;76.01;100727.66;5092713;28;20067;-61
2021/09/23 03:54:22;;;;;;;43.58;26.52;;;;;;;10.74;75.97;100725.91;5092157;28;20048;-61
2021/09/23 03:56:51;;;;;;;40.95;24.88;;;;;;;10.75;76.83;100721.16;5092730;28;20410;-62
2021/09/23 03:59:18;;;;;;;39.60;24.40;;;;;;;10.82;76.68;100724.38;5093253;28;20398;-62
2021/09/23 04:01:46;;;;;;;44.88;26.58;;;;;;;10.89;76.69;100727.56;5092792;28;20052;-61
2021/09/23 04:04:13;;;;;;;46.05;26.83;;;;;;;10.95;76.64;100726.31;5091497;28;20549;-61
2021/09/23 04:06:43;;;;;;;42.90;27.15;;;;;;;11.02;76.58;100736.22;5092310;28;20063;-61
2021/09/23 04:09:11;;;;;;;40.42;26.60;;;;;;;11.03;76.42;100735.91;5092352;28;20067;-61
2021/09/23 04:11:39;;;;;;;46.70;26.70;;;;;;;11.03;76.06;100746.25;5092118;28;20394;-61
2021/09/23 04:14:09;;;;;;;46.15;27.17;;;;;;;11.03;75.90;100737.88;5092783;28;20056;-62
2021/09/23 04:16:36;;;;;;;47.83;27.17;;;;;;;11.03;76.35;100743.47;5078081;28;20063;-62
2021/09/23 04:19:05;;;;;;;42.53;26.83;;;;;;;11.11;76.26;100734.38;5072131;28;20051;-61
2021/09/23 04:21:32;;;;;;;48.70;27.27;;;;;;;11.13;75.77;100732.09;5088503;28;20048;-62
2021/09/23 04:24:00;;;;;;;45.00;26.25;;;;;;;11.18;75.67;100735.56;5092020;28;20059;-61
2021/09/23 04:26:27;;;;;;;47.25;27.17;;;;;;;11.16;75.78;100734.25;5092593;28;20059;-62
2021/09/23 04:28:54;;;;;;;46.67;27.15;;;;;;;11.16;75.99;100735.06;5090648;28;20055;-62
2021/09/23 04:31:23;;;;;;;41.83;26.08;;;;;;;11.17;75.68;100731.16;5072264;28;20059;-62
2021/09/23 04:33:50;;;;;;;49.10;27.30;;;;;;;11.20;75.86;100726.91;5071972;28;20052;-61
2021/09/23 04:36:18;;;;;;;37.17;24.52;;;;;;;11.15;76.04;100732.59;5072931;28;20041;-62
2021/09/23 04:38:45;;;;;;;42.42;26.98;;;;;;;11.17;76.65;100733.09;5078552;28;20055;-61
2021/09/23 04:41:13;;;;;;;47.15;27.50;;;;;;;11.20;76.42;100740.84;5092661;28;20059;-62
2021/09/23 04:43:40;;;;;;;44.13;26.00;;;;;;;11.19;76.76;100741.97;5092135;28;20052;-62
2021/09/23 04:46:08;;;;;;;45.08;26.08;;;;;;;11.23;76.64;100736.59;5092426;28;20418;-61
2021/09/23 04:48:37;;;;;;;42.83;25.73;;;;;;;11.25;76.61;100735.16;5092730;28;20052;-62
2021/09/23 04:51:05;;;;;;;37.20;25.27;;;;;;;11.28;76.10;100731.75;5092026;28;20524;-61
2021/09/23 04:53:35;;;;;;;36.58;23.75;;;;;;;11.30;76.12;100737.84;5092374;28;20056;-61
2021/09/23 04:56:02;;;;;;;;;;;;;;;11.27;76.38;100741.25;5093118;28;20067;-62
2021/09/23 04:58:29;;;;;;;36.88;22.50;;;;;;;11.27;75.93;100741.25;5095858;28;19953;-62
2021/09/23 05:00:56;;;;;;;37.03;22.85;;;;;;;11.30;75.88;100740.63;5096128;28;20383;-61
2021/09/23 05:03:24;;;;;;;33.45;21.73;;;;;;;11.30;75.86;100739.81;5095156;28;20712;-61
2021/09/23 05:05:53;;;;;;;35.10;22.73;;;;;;;11.31;75.65;100738.66;5096426;28;20059;-62
2021/09/23 05:08:20;;;;;;;36.38;23.40;;;;;;;11.32;75.28;100738.34;5095898;28;20498;-60
2021/09/23 05:10:48;;;;;;;36.67;23.38;;;;;;;11.24;75.49;100739.09;5094527;28;20056;-61
2021/09/23 05:13:15;;;;;;;35.47;23.15;;;;;;;11.31;74.97;100739.47;5095286;28;20059;-61
2021/09/23 05:15:42;;;;;;;32.40;21.08;;;;;;;11.35;74.81;100734.09;5094659;28;20059;-62
2021/09/23 05:18:10;;;;;;;30.95;19.80;;;;;;;11.30;75.21;100735.06;5095052;28;20044;-61
2021/09/23 05:20:40;;;;;;;30.67;19.98;;;;;;;11.33;75.21;100733.59;5095574;28;20055;-61
2021/09/23 05:23:09;;;;;;;;;;;;;;;11.25;75.59;100740.72;5096073;28;20059;-62
2021/09/23 05:25:37;;;;;;;29.48;19.30;;;;;;;11.26;75.19;100745.19;5095603;28;19927;-62
2021/09/23 05:28:05;;;;;;;28.95;19.92;;;;;;;11.34;75.17;100746.41;5095478;28;20366;-62
2021/09/23 05:30:32;;;;;;;29.35;19.42;;;;;;;11.41;74.50;100734.81;5094319;28;20101;-62
2021/09/23 05:33:02;;;;;;;25.55;18.30;;;;;;;11.41;74.19;100732.03;5094848;28;20482;-62
2021/09/23 05:35:30;;;;;;;24.40;17.50;;;;;;;11.43;74.30;100727.78;5093383;28;20052;-61
2021/09/23 05:37:57;;;;;;;24.13;17.17;;;;;;;11.46;74.22;100712.38;5095134;28;20063;-62
2021/09/23 05:40:26;;;;;;;24.48;16.90;;;;;;;11.51;74.65;100715.06;5094002;28;20111;-62
2021/09/23 05:42:54;;;;;;;17.93;12.70;;;;;;;11.57;76.18;100713.81;5081128;28;20051;-62
2021/09/23 05:45:21;;;;;;;20.95;14.30;;;;;;;11.62;75.71;100724.84;5085772;28;20052;-61
2021/09/23 05:47:48;;;;;;;20.08;14.07;;;;;;;11.71;76.00;100722.94;5087568;28;20055;-61
2021/09/23 05:50:16;;;;;;;19.52;13.77;;;;;;;11.77;75.65;100724.47;5095111;28;20058;-61
2021/09/23 05:52:43;;;;;;;19.05;13.50;;;;;;;11.84;75.57;100737.16;5095447;28;20056;-61
2021/09/23 05:55:11;;;;;;;20.10;12.50;;;;;;;11.99;75.57;100725.66;5094590;28;20048;-61
2021/09/23 05:57:41;;;;;;;19.48;12.73;;;;;;;12.10;75.32;100727.03;5093871;28;20048;-62
2021/09/23 06:00:10;;;;;;;19.00;13.18;;;;;;;12.19;75.64;100724.28;5093411;28;20047;-62
2021/09/23 06:02:38;;;;;;;15.73;12.45;;;;;;;12.28;75.33;100718.75;5093823;28;20055;-61
2021/09/23 06:05:06;;;;;;;17.42;11.63;;;;;;;12.43;74.80;100712.78;5093619;28;20399;-61
2021/09/23 06:07:34;;;;;;;16.85;11.65;;;;;;;12.45;74.65;100709.63;5093009;28;20047;-61
2021/09/23 06:10:03;;;;;;;16.55;12.90;;;;;;;12.41;75.15;100703.91;5085643;28;20063;-61
2021/09/23 06:12:31;;;;;;;14.45;11.30;;;;;;;12.61;74.67;100696.91;5074433;28;20045;-61
2021/09/23 06:14:59;;;;;;;16.83;11.00;;;;;;;12.84;73.93;100696.81;5089170;28;20058;-61
2021/09/23 06:17:27;;;;;;;13.23;10.43;;;;;;;13.10;72.85;100691.28;5092101;28;20063;-61
2021/09/23 06:19:54;;;;;;;11.43;8.90;;;;;;;13.48;71.39;100696.28;5094280;28;20044;-61
2021/09/23 06:22:22;;;;;;;12.25;8.68;;;;;;;13.74;69.73;100688.72;5092452;28;20104;-61
2021/09/23 06:24:49;;;;;;;12.98;8.70;;;;;;;14.09;68.43;100680.28;5092945;28;20059;-61
2021/09/23 06:27:16;;;;;;;10.55;8.10;;;;;;;14.55;67.20;100683.41;5092753;28;20067;-61
2021/09/23 06:29:44;;;;;;;10.55;7.85;;;;;;;14.92;65.89;100662.13;5093948;28;20052;-61
2021/09/23 06:32:13;;;;;;;12.30;7.85;;;;;;;15.04;65.36;100655.81;5090675;28;20051;-61
2021/09/23 06:34:41;;;;;;;;;;;;;;;15.10;65.40;100660.06;5094377;28;20170;-61
2021/09/23 06:37:08;;;;;;;10.50;7.57;;;;;;;15.66;64.38;100665.38;5093796;28;19927;-61
2021/09/23 06:39:38;;;;;;;9.68;7.45;;;;;;;16.36;61.45;100665.50;5093561;28;20063;-61
2021/09/23 06:42:05;;;;;;;9.88;7.45;;;;;;;17.04;59.21;100656.50;5073963;28;20082;-61
2021/09/23 06:44:33;;;;;;;11.57;7.88;;;;;;;17.66;56.99;100653.56;5074036;28;20753;-61
2021/09/23 06:47:01;;;;;;;9.20;6.60;;;;;;;18.03;55.64;100659.03;5085269;28;20059;-61
2021/09/23 06:49:30;;;;;;;8.27;6.88;;;;;;;18.94;53.86;100652.53;5091813;28;20059;-61
2021/09/23 06:51:57;;;;;;;10.30;8.13;;;;;;;19.68;51.92;100648.91;5093806;28;20051;-61
2021/09/23 06:54:25;;;;;;;10.80;7.32;;;;;;;20.43;49.83;100647.53;5092345;28;20063;-61
2021/09/23 06:56:52;;;;;;;12.27;7.05;;;;;;;21.14;48.03;100647.03;5092716;28;20056;-61
2021/09/23 06:59:19;;;;;;;9.82;7.43;;;;;;;21.71;47.20;100654.72;5093762;28;20396;-61
2021/09/23 07:01:48;;;;;;;10.85;7.22;;;;;;;22.43;44.78;100653.50;5093561;28;20048;-61
2021/09/23 07:04:16;;;;;;;10.57;7.38;;;;;;;23.16;43.15;100650.03;5093037;28;20044;-62
2021/09/23 07:06:46;;;;;;;8.50;5.72;;;;;;;23.71;40.66;100647.06;5089859;28;20060;-61
2021/09/23 07:09:14;;;;;;;6.32;5.63;;;;;;;24.12;39.93;100643.97;5086106;28;20521;-61
2021/09/23 07:11:41;;;;;;;9.02;5.75;;;;;;;24.65;38.21;100640.41;5079936;28;20048;-61
2021/09/23 07:14:08;;;;;;;5.70;4.47;;;;;;;24.65;37.24;100637.56;5086661;28;20402;-61
2021/09/23 07:16:36;;;;;;;6.72;4.65;;;;;;;25.16;36.57;100635.44;5084172;28;20558;-62
2021/09/23 07:19:03;;;;;;;5.75;4.38;;;;;;;25.68;35.08;100629.16;5073024;28;20064;-62
2021/09/23 07:21:31;;;;;;;5.68;4.40;;;;;;;25.24;36.14;100627.69;5077230;28;20052;-62
2021/09/23 07:23:59;;;;;;;6.85;4.70;;;;;;;25.72;34.51;100629.97;5088972;28;20055;-61
2021/09/23 07:26:27;;;;;;;4.65;4.15;;;;;;;24.95;35.86;100627.75;5084484;28;20059;-62
2021/09/23 07:28:55;;;;;;;5.75;4.25;;;;;;;25.57;34.89;100626.38;5090915;28;20629;-62
2021/09/23 07:31:22;;;;;;;6.72;4.55;;;;;;;26.04;33.58;100620.44;5075720;28;20052;-61
2021/09/23 07:33:50;;;;;;;7.90;4.88;;;;;;;26.32;33.47;100625.97;5070957;28;20597;-62
2021/09/23 07:36:18;;;;;;;6.17;4.67;;;;;;;26.96;32.75;100623.78;5072694;28;20055;-62
2021/09/23 07:38:45;;;;;;;6.88;4.78;;;;;;;27.60;31.63;100628.03;5076413;28;20075;-62
2021/09/23 07:41:15;;;;;;;7.18;4.30;;;;;;;28.23;30.21;100618.19;5078373;28;20055;-62
2021/09/23 07:43:42;;;;;;;5.43;4.72;;;;;;;27.57;30.96;100625.19;5079970;28;20403;-59
2021/09/23 07:46:10;;;;;;;6.00;4.65;;;;;;;28.08;29.97;100620.44;5081530;28;20056;-60
2021/09/23 07:48:37;;;;;;;7.75;5.35;;;;;;;27.99;30.25;100620.16;5090393;28;20059;-62
2021/09/23 07:51:04;;;;;;;6.07;4.82;;;;;;;27.77;30.11;100614.72;5089743;28;20104;-60
2021/09/23 07:53:32;;;;;;;6.28;4.38;;;;;;;28.19;29.60;100621.09;5081996;28;20391;-60
2021/09/23 07:55:59;;;;;;;7.38;4.63;;;;;;;29.33;28.13;100626.91;5069500;28;20059;-60
2021/09/23 07:58:28;;;;;;;7.53;4.93;;;;;;;30.02;27.87;100619.75;5078571;28;20048;-62
2021/09/23 08:00:55;;;;;;;6.97;4.70;;;;;;;30.02;27.06;100631.25;5086285;28;20417;-62
2021/09/23 08:03:22;;;;;;;7.28;4.78;;;;;;;30.03;26.96;100638.59;5085767;28;20048;-62
2021/09/23 08:05:50;;;;;;;5.95;5.00;;;;;;;30.54;26.26;100631.25;5085703;28;20079;-62
2021/09/23 08:08:17;;;;;;;7.35;5.15;;;;;;;31.03;25.25;100618.09;5086511;28;20044;-62
2021/09/23 08:10:45;;;;;;;5.63;4.32;;;;;;;31.47;24.48;100619.31;5084715;28;20076;-62
2021/09/23 08:13:12;;;;;;;5.60;4.47;;;;;;;31.62;24.75;100621.78;5087360;28;20044;-61
2021/09/23 08:15:42;;;;;;;7.70;5.20;;;;;;;31.51;25.03;100614.28;5084135;28;20414;-61
2021/09/23 08:18:10;;;;;;;5.63;4.93;;;;;;;31.70;24.06;100603.03;5076106;28;20052;-61
2021/09/23 08:20:37;;;;;;;5.63;4.57;;;;;;;30.63;25.48;100604.72;5078042;28;20503;-61
2021/09/23 08:23:05;;;;;;;5.22;4.72;;;;;;;30.82;24.88;100582.84;5085588;28;20052;-61
2021/09/23 08:25:33;;;;;;;5.13;4.32;;;;;;;30.76;25.62;100587.53;5081051;28;20052;-61
2021/09/23 08:28:01;;;;;;;6.05;4.97;;;;;;;30.84;24.92;100576.66;5086489;28;20056;-61
2021/09/23 08:30:28;;;;;;;7.88;4.40;;;;;;;30.84;25.40;100573.78;5088622;28;20052;-61
2021/09/23 08:32:57;;;;;;;7.30;4.70;;;;;;;29.99;26.27;100564.00;5081861;28;20063;-61
2021/09/23 08:35:24;;;;;;;;;;;;;;;31.41;24.63;100556.97;5086478;28;20059;-61
2021/09/23 08:37:52;;;;;;;4.63;3.90;;;;;;;32.46;23.66;100563.97;5094216;28;20289;-60
2021/09/23 08:40:19;;;;;;;6.03;4.90;;;;;;;33.22;22.31;100570.81;5073989;28;20067;-61
2021/09/23 08:42:47;;;;;;;5.80;4.50;;;;;;;33.02;22.33;100568.22;5078221;28;20063;-61
2021/09/23 08:45:17;;;;;;;5.28;4.60;;;;;;;32.59;22.38;100547.50;5085764;28;20055;-61
2021/09/23 08:47:45;;;;;;;5.47;4.38;;;;;;;32.94;22.41;100554.03;5083514;28;20059;-61
2021/09/23 08:50:15;;;;;;;;;;;;;;;32.90;22.06;100536.06;5093168;28;20052;-61
2021/09/23 08:52:43;;;;;;;8.32;4.25;;;;;;;33.69;21.89;100529.41;5082914;28;19920;-61
2021/09/23 08:55:21;;;;;;;6.13;3.72;;;;;;;34.14;21.00;100522.22;5092304;28;20044;-61
2021/09/23 08:57:48;;;;;;;6.20;4.43;;;;;;;33.58;21.52;100524.03;5092944;28;20056;-61
2021/09/23 09:00:17;;;;;;;7.82;4.13;;;;;;;33.57;21.60;100522.41;5086018;28;20071;-61
2021/09/23 09:02:59;;;;;;;5.63;4.20;;;;;;;32.86;22.03;100523.84;5090707;28;20489;-61
2021/09/23 09:05:28;;;;;;;5.10;3.88;;;;;;;32.46;22.72;100527.28;5086262;28;20439;-61
2021/09/23 09:08:01;;;;;;;5.32;4.13;;;;;;;33.32;21.82;100511.84;5085268;28;20071;-61
2021/09/23 09:10:29;;;;;;;5.68;4.20;;;;;;;33.59;21.05;100514.09;5081113;28;20064;-61
2021/09/23 09:12:56;;;;;;;4.85;3.90;;;;;;;33.70;20.70;100505.81;5089313;28;20484;-61
2021/09/23 09:15:34;;;;;;;8.30;4.07;;;;;;;33.82;20.57;100509.88;5082512;28;20060;-61
2021/09/23 09:18:16;;;;;;;6.47;4.10;;;;;;;33.53;21.02;100492.88;5086819;28;20059;-61
2021/09/23 09:20:56;;;;;;;6.60;3.70;;;;;;;33.55;21.29;100496.88;5081236;28;20059;-61
2021/09/23 09:23:25;;;;;;;4.93;4.05;;;;;;;32.27;22.65;100494.59;5080290;28;20402;-61
2021/09/23 09:25:53;;;;;;;;;;;;;;;32.55;22.34;100497.78;5078076;28;20053;-61
2021/09/23 09:28:21;;;;;;;7.05;3.85;;;;;;;33.85;20.98;100497.41;5084562;28;19935;-61
2021/09/23 09:30:54;;;;;;;4.25;3.80;;;;;;;32.75;21.79;100486.72;5078237;28;20059;-61
2021/09/23 09:33:23;;;;;;;5.90;3.92;;;;;;;32.87;21.76;100481.38;5085920;28;20043;-61
2021/09/23 09:35:50;;;;;;;11.27;3.88;;;;;;;32.48;22.21;100472.03;5089247;28;20063;-61
2021/09/23 09:38:22;;;;;;;10.68;4.35;;;;;;;32.50;22.20;100476.06;5083877;28;20055;-59
2021/09/23 09:40:55;;;;;;;5.28;3.90;;;;;;;33.11;21.66;100478.84;5093222;28;20059;-59
2021/09/23 09:43:25;;;;;;;4.50;3.72;;;;;;;32.75;22.30;100480.97;5080818;28;20056;-60
2021/09/23 09:45:54;;;;;;;4.70;3.10;;;;;;;32.95;21.98;100482.72;5083901;28;20052;-60
2021/09/23 09:48:30;;;;;;;4.00;3.42;;;;;;;34.71;20.55;100482.19;5087345;28;20055;-60
2021/09/23 09:51:02;;;;;;;6.38;3.50;;;;;;;35.46;18.85;100474.16;5092807;28;20052;-60
2021/09/23 09:53:30;;;;;;;5.07;3.80;;;;;;;35.97;18.79;100493.59;5086306;28;20052;-60
2021/09/23 09:55:58;;;;;;;5.53;3.67;;;;;;;37.41;17.10;100478.13;5087046;28;20098;-59
2021/09/23 09:58:25;;;;;;;7.40;4.07;;;;;;;36.03;18.08;100468.44;5087960;28;20072;-60
2021/09/23 10:00:53;;;;;;;5.40;3.80;;;;;;;36.58;17.60;100479.69;5082992;28;20075;-60
2021/09/23 10:03:21;;;;;;;4.93;4.15;;;;;;;36.05;18.13;100474.56;5085050;28;20056;-60
2021/09/23 10:05:49;;;;;;;4.10;3.70;;;;;;;35.91;18.12;100472.38;5072294;28;20075;-60
2021/09/23 10:08:17;;;;;;;4.80;3.90;;;;;;;34.97;19.18;100478.94;5083727;28;20052;-60
2021/09/23 10:10:47;;;;;;;;;;;;;;;34.70;20.32;100479.75;5085036;28;20067;-60
2021/09/23 10:13:16;;;;;;;4.40;3.75;;;;;;;33.99;20.98;100483.63;5088851;28;20384;-60
2021/09/23 10:15:44;;;;;;;4.68;3.80;;;;;;;33.79;20.88;100478.25;5078369;28;20055;-60
2021/09/23 10:18:12;;;;;;;5.22;3.80;;;;;;;33.55;21.63;100473.00;5087332;28;20054;-60
2021/09/23 10:20:41;;;;;;;5.23;3.77;;;;;;;33.93;21.08;100460.31;5086054;28;20489;-60
2021/09/23 10:23:11;;;;;;;4.97;3.63;;;;;;;33.53;20.90;100446.66;5092364;28;20048;-60
2021/09/23 10:25:40;;;;;;;4.13;3.70;;;;;;;33.67;21.04;100439.53;5091580;28;20036;-59
2021/09/23 10:28:10;;;;;;;4.55;3.72;;;;;;;34.11;20.79;100422.78;5088213;28;20099;-60
2021/09/23 10:30:40;;;;;;;4.05;3.65;;;;;;;33.38;21.35;100439.88;5090747;28;20067;-60
2021/09/23 10:33:08;;;;;;;4.95;3.92;;;;;;;32.50;22.00;100432.00;5080194;28;20497;-60
2021/09/23 10:35:37;;;;;;;5.97;3.60;;;;;;;33.36;21.09;100432.47;5091134;28;20070;-59
2021/09/23 10:38:06;;;;;;;;;;;;;;;34.05;20.36;100424.69;5093162;28;20055;-59
2021/09/23 10:40:34;;;;;;;;;;;;;;;33.16;21.38;100434.94;5089752;28;20389;-60
2021/09/23 10:43:04;;;;;;;4.27;3.83;;;;;;;31.90;22.81;100435.75;5089866;28;19927;-60
2021/09/23 10:45:35;;;;;;;5.63;3.55;;;;;;;31.68;22.50;100433.56;5089664;28;20812;-60
2021/09/23 10:48:04;;;;;;;5.90;3.80;;;;;;;31.63;23.43;100424.72;5089344;28;20044;-60
2021/09/23 10:50:34;;;;;;;5.43;3.65;;;;;;;31.90;22.71;100422.16;5092059;28;20230;-59
2021/09/23 10:53:05;;;;;;;5.45;3.97;;;;;;;32.66;22.39;100420.31;5085074;28;20486;-59
2021/09/23 10:55:35;;;;;;;5.05;3.45;;;;;;;34.15;20.37;100414.00;5076316;28;20053;-60
2021/09/23 10:58:04;;;;;;;5.35;3.78;;;;;;;34.04;20.12;100431.78;5083208;28;20510;-60
2021/09/23 11:00:33;;;;;;;;;;;;;;;35.17;18.76;100424.25;5078742;28;20393;-60
2021/09/23 11:03:04;;;;;;;4.55;3.92;;;;;;;35.06;19.02;100417.31;5081409;28;19919;-58
2021/09/23 11:05:32;;;;;;;4.30;3.83;;;;;;;35.64;19.02;100421.16;5067278;28;20063;-59
2021/09/23 11:08:05;;;;;;;5.32;3.45;;;;;;;36.59;18.03;100436.97;5065151;28;20040;-59
2021/09/23 11:10:33;;;;;;;6.15;3.78;;;;;;;37.30;17.61;100423.53;5065314;28;20052;-60
2021/09/23 11:13:00;;;;;;;4.93;4.40;;;;;;;36.83;17.35;100416.59;5057606;28;20052;-60
2021/09/23 11:15:30;;;;;;;4.72;3.45;;;;;;;36.97;17.30;100412.09;5061173;28;20049;-60
2021/09/23 11:18:02;;;;;;;4.88;3.38;;;;;;;37.13;17.21;100408.72;5066771;28;20170;-58
2021/09/23 11:20:31;;;;;;;7.45;3.47;;;;;;;38.00;16.89;100407.44;5070302;28;20064;-60
2021/09/23 11:23:01;;;;;;;7.03;3.70;;;;;;;37.62;17.10;100405.56;5058918;28;20415;-59
2021/09/23 11:25:37;;;;;;;6.38;3.35;;;;;;;38.92;16.17;100402.97;5070965;28;20057;-60